createdAt,value
2023-01-29T00:00:33.006Z,8.25
2023-01-29T00:03:20.091Z,8.23
2023-01-29T00:05:47.559Z,9.15
2023-01-29T00:08:14.633Z,6.93
2023-01-29T00:10:41.985Z,7.18
2023-01-29T00:13:11.483Z,7.38
2023-01-29T00:15:38.851Z,7.70
2023-01-29T00:18:05.933Z,7.75
2023-01-29T00:20:33.552Z,7.43
2023-01-29T00:23:00.594Z,7.50
2023-01-29T00:25:31.444Z,6.93
2023-01-29T00:27:58.529Z,6.38
2023-01-29T00:30:25.870Z,6.00
2023-01-29T00:32:57.452Z,5.25
2023-01-29T00:35:24.995Z,6.15
2023-01-29T00:37:55.404Z,5.57
2023-01-29T00:40:22.860Z,4.80
2023-01-29T00:42:50.179Z,4.80
2023-01-29T00:45:17.590Z,5.00
2023-01-29T00:47:47.324Z,5.18
2023-01-29T00:50:17.513Z,6.47
2023-01-29T00:52:44.758Z,7.18
2023-01-29T00:55:15.110Z,7.05
2023-01-29T00:57:44.406Z,6.68
2023-01-29T01:00:14.777Z,7.50
2023-01-29T01:02:44.471Z,7.00
2023-01-29T01:05:14.430Z,7.32
2023-01-29T01:07:46.284Z,6.78
2023-01-29T01:10:19.458Z,7.18
2023-01-29T01:12:55.415Z,8.55
2023-01-29T01:15:43.905Z,7.03
2023-01-29T01:18:11.118Z,7.72
2023-01-29T01:20:38.541Z,7.68
2023-01-29T01:23:05.709Z,7.88
2023-01-29T01:25:33.729Z,7.32
2023-01-29T01:30:27.135Z,6.85
2023-01-29T01:32:54.329Z,7.07
2023-01-29T01:35:21.673Z,6.95
2023-01-29T01:37:50.955Z,6.07
2023-01-29T01:40:23.221Z,7.30
2023-01-29T01:42:56.429Z,6.63
2023-01-29T01:45:29.717Z,4.53
2023-01-29T01:48:05.965Z,7.23
2023-01-29T01:50:49.836Z,5.50
2023-01-29T01:53:22.638Z,5.55
2023-01-29T01:55:56.851Z,5.53
2023-01-29T01:58:30.648Z,5.20
2023-01-29T02:00:58.089Z,5.95
2023-01-29T02:03:28.498Z,5.50
2023-01-29T02:05:58.980Z,11.90
2023-01-29T02:08:37.992Z,9.82
2023-01-29T02:11:07.005Z,8.05
2023-01-29T02:13:36.656Z,5.63
2023-01-29T02:16:04.194Z,6.78
2023-01-29T02:18:31.713Z,5.75
2023-01-29T02:21:11.522Z,6.95
2023-01-29T02:23:56.884Z,6.13
2023-01-29T02:26:58.211Z,5.57
2023-01-29T02:29:38.063Z,6.82
2023-01-29T02:32:41.984Z,5.75
2023-01-29T02:35:20.849Z,6.25
2023-01-29T02:38:07.064Z,5.88
2023-01-29T02:40:43.175Z,5.88
2023-01-29T02:43:33.255Z,5.90
2023-01-29T02:46:11.741Z,5.47
2023-01-29T02:49:00.479Z,4.13
2023-01-29T02:51:34.644Z,3.70
2023-01-29T02:54:04.931Z,4.32
2023-01-29T02:56:41.276Z,5.38
2023-01-29T02:59:33.487Z,4.97
2023-01-29T03:02:15.572Z,4.95
2023-01-29T03:04:51.439Z,4.15
2023-01-29T03:07:25.580Z,3.63
2023-01-29T03:09:54.950Z,3.30
2023-01-29T03:12:29.265Z,3.50
2023-01-29T03:14:59.011Z,3.53
2023-01-29T03:17:37.211Z,4.05
2023-01-29T03:20:09.679Z,4.75
2023-01-29T03:22:38.299Z,5.47
2023-01-29T03:25:10.039Z,4.90
2023-01-29T03:27:45.019Z,5.18
2023-01-29T03:30:15.903Z,4.60
2023-01-29T03:32:46.684Z,4.80
2023-01-29T03:35:17.732Z,4.35
2023-01-29T03:37:47.953Z,4.40
2023-01-29T03:40:16.284Z,4.20
2023-01-29T03:43:05.866Z,4.68
2023-01-29T03:45:33.203Z,4.45
2023-01-29T03:48:18.783Z,4.40
2023-01-29T03:51:01.297Z,4.63
2023-01-29T03:53:37.228Z,4.85
2023-01-29T03:56:16.097Z,4.85
2023-01-29T03:58:55.682Z,4.70
2023-01-29T04:04:03.614Z,4.90
2023-01-29T04:06:34.210Z,5.13
2023-01-29T04:09:10.973Z,4.63
2023-01-29T04:11:45.097Z,5.07
2023-01-29T04:14:13.409Z,4.90
2023-01-29T04:16:52.402Z,5.30
2023-01-29T04:19:19.929Z,5.63
2023-01-29T04:21:53.115Z,5.25
2023-01-29T04:24:20.279Z,5.70
2023-01-29T04:26:55.483Z,5.05
2023-01-29T04:29:31.419Z,5.40
2023-01-29T04:32:35.399Z,5.93
2023-01-29T04:35:20.461Z,5.70
2023-01-29T04:38:03.297Z,5.97
2023-01-29T04:40:44.844Z,5.55
2023-01-29T04:43:33.272Z,5.38
2023-01-29T04:46:16.704Z,5.95
2023-01-29T04:49:02.799Z,6.32
2023-01-29T04:51:54.682Z,6.65
2023-01-29T04:54:28.149Z,6.47
2023-01-29T04:57:36.267Z,6.57
2023-01-29T05:00:13.633Z,6.78
2023-01-29T05:02:43.498Z,7.38
2023-01-29T05:05:12.622Z,7.25
2023-01-29T05:07:42.816Z,8.18
2023-01-29T05:10:14.943Z,8.18
2023-01-29T05:12:46.676Z,8.52
2023-01-29T05:15:22.343Z,8.95
2023-01-29T05:17:49.449Z,9.00
2023-01-29T05:20:17.344Z,7.68
2023-01-29T05:22:47.967Z,9.75
2023-01-29T05:25:22.773Z,8.57
2023-01-29T05:27:51.650Z,8.40
2023-01-29T05:30:19.381Z,8.18
2023-01-29T05:32:46.616Z,8.10
2023-01-29T05:35:14.020Z,7.95
2023-01-29T05:37:41.157Z,8.07
2023-01-29T05:40:11.825Z,8.18
2023-01-29T05:42:38.954Z,8.25
2023-01-29T05:45:09.428Z,7.68
2023-01-29T05:47:36.610Z,7.72
2023-01-29T05:50:04.144Z,8.05
2023-01-29T05:52:31.193Z,9.35
2023-01-29T05:54:58.539Z,8.85
2023-01-29T05:57:25.595Z,9.48
2023-01-29T05:59:52.924Z,9.02
2023-01-29T06:02:24.626Z,8.18
2023-01-29T06:04:52.616Z,8.63
2023-01-29T06:07:19.670Z,7.93
2023-01-29T06:09:51.805Z,9.45
2023-01-29T06:12:18.861Z,9.93
2023-01-29T06:14:46.233Z,8.95
2023-01-29T06:17:13.302Z,9.45
2023-01-29T06:19:40.615Z,9.63
2023-01-29T06:22:10.166Z,11.38
2023-01-29T06:24:39.975Z,13.48
2023-01-29T06:27:07.015Z,13.93
2023-01-29T06:29:34.332Z,15.10
2023-01-29T06:32:01.465Z,16.08
2023-01-29T06:34:28.885Z,15.68
2023-01-29T06:36:55.942Z,18.42
2023-01-29T06:39:23.262Z,23.27
2023-01-29T06:41:52.583Z,21.35
2023-01-29T06:44:20.017Z,26.20
2023-01-29T06:46:49.285Z,22.42
2023-01-29T06:49:21.052Z,23.90
2023-01-29T06:51:48.071Z,20.52
2023-01-29T06:54:15.452Z,19.75
2023-01-29T06:56:42.471Z,16.45
2023-01-29T06:59:11.208Z,17.02
2023-01-29T07:01:43.493Z,13.45
2023-01-29T07:04:11.463Z,11.60
2023-01-29T07:06:38.591Z,10.35
2023-01-29T07:09:05.956Z,8.80
2023-01-29T07:11:34.962Z,8.23
2023-01-29T07:14:05.127Z,7.32
2023-01-29T07:16:34.708Z,7.20
2023-01-29T07:19:02.227Z,6.20
2023-01-29T07:21:29.354Z,6.05
2023-01-29T07:23:57.113Z,5.97
2023-01-29T07:26:26.507Z,6.18
2023-01-29T07:28:53.846Z,6.13
2023-01-29T07:31:20.999Z,6.68
2023-01-29T07:33:50.861Z,7.47
2023-01-29T07:36:20.471Z,6.80
2023-01-29T07:38:51.419Z,7.28
2023-01-29T07:41:18.996Z,7.18
2023-01-29T07:43:46.328Z,6.57
2023-01-29T07:46:13.450Z,5.70
2023-01-29T07:48:43.316Z,5.65
2023-01-29T07:51:10.335Z,5.95
2023-01-29T07:53:37.682Z,5.32
2023-01-29T07:56:04.995Z,6.07
2023-01-29T07:58:32.767Z,7.18
2023-01-29T08:01:00.312Z,5.90
2023-01-29T08:03:30.297Z,6.55
2023-01-29T08:05:58.806Z,5.32
2023-01-29T08:08:26.198Z,6.03
2023-01-29T08:10:53.249Z,6.30
2023-01-29T08:13:20.656Z,6.63
2023-01-29T08:15:47.873Z,5.22
2023-01-29T08:18:17.684Z,5.88
2023-01-29T08:20:47.288Z,5.97
2023-01-29T08:23:15.983Z,6.78
2023-01-29T08:25:43.291Z,7.03
2023-01-29T08:28:13.420Z,7.22
2023-01-29T08:30:42.717Z,7.32
2023-01-29T08:33:12.573Z,7.13
2023-01-29T08:35:39.793Z,7.75
2023-01-29T08:38:07.226Z,6.13
2023-01-29T08:40:35.295Z,6.63
2023-01-29T08:43:06.302Z,6.82
2023-01-29T08:45:37.543Z,6.75
2023-01-29T08:48:05.362Z,5.47
2023-01-29T08:50:32.515Z,6.13
2023-01-29T08:53:04.009Z,6.20
2023-01-29T08:55:35.017Z,6.82
2023-01-29T08:58:10.825Z,7.22
2023-01-29T09:00:38.600Z,6.70
2023-01-29T09:03:06.313Z,6.80
2023-01-29T09:05:37.065Z,6.90
2023-01-29T09:08:05.405Z,6.38
2023-01-29T09:10:35.484Z,7.32
2023-01-29T09:13:03.207Z,7.30
2023-01-29T09:15:30.510Z,7.55
2023-01-29T09:17:57.867Z,7.93
2023-01-29T09:20:27.184Z,8.07
2023-01-29T09:22:54.518Z,8.43
2023-01-29T09:25:26.330Z,7.63
2023-01-29T09:27:54.763Z,6.97
2023-01-29T09:30:24.387Z,6.45
2023-01-29T09:32:54.429Z,6.80
2023-01-29T09:35:23.138Z,6.95
2023-01-29T09:37:51.483Z,7.20
2023-01-29T09:40:25.279Z,7.03
2023-01-29T09:43:17.835Z,6.70
2023-01-29T09:45:56.487Z,6.60
2023-01-29T09:48:30.119Z,6.20
2023-01-29T09:51:03.641Z,6.90
2023-01-29T09:53:40.782Z,6.38
2023-01-29T09:56:22.331Z,6.43
2023-01-29T09:58:49.828Z,6.68
2023-01-29T10:01:22.559Z,6.90
2023-01-29T10:03:58.873Z,6.93
2023-01-29T10:06:48.212Z,8.23
2023-01-29T10:09:24.357Z,8.20
2023-01-29T10:12:09.620Z,7.53
2023-01-29T10:14:46.005Z,8.52
2023-01-29T10:17:13.162Z,7.97
2023-01-29T10:20:02.115Z,9.48
2023-01-29T10:22:47.783Z,11.43
2023-01-29T10:25:20.963Z,8.18
2023-01-29T10:27:52.953Z,8.38
2023-01-29T10:30:32.271Z,8.23
2023-01-29T10:33:04.707Z,9.35
2023-01-29T10:35:49.523Z,7.70
2023-01-29T10:38:52.535Z,8.13
2023-01-29T10:41:25.886Z,7.72
2023-01-29T10:44:07.418Z,7.70
2023-01-29T10:47:00.739Z,8.23
2023-01-29T10:50:01.630Z,6.82
2023-01-29T10:52:43.996Z,7.47
2023-01-29T10:55:41.546Z,7.47
2023-01-29T10:58:30.340Z,6.60
2023-01-29T11:00:58.246Z,8.40
2023-01-29T11:03:28.592Z,7.75
2023-01-29T11:06:02.335Z,8.13
2023-01-29T11:11:17.485Z,7.63
2023-01-29T11:13:54.751Z,8.13
2023-01-29T11:16:21.809Z,8.13
2023-01-29T11:18:52.796Z,7.72
2023-01-29T11:21:22.709Z,7.72
2023-01-29T11:23:50.744Z,8.25
2023-01-29T11:26:21.311Z,7.63
2023-01-29T11:28:51.124Z,6.88
2023-01-29T11:31:23.264Z,8.90
2023-01-29T11:34:02.983Z,8.07
2023-01-29T11:36:35.898Z,8.90
2023-01-29T11:39:24.296Z,9.27
2023-01-29T11:41:53.839Z,8.15
2023-01-29T11:44:31.373Z,8.07
2023-01-29T11:47:19.665Z,7.97
2023-01-29T11:49:50.375Z,7.57
2023-01-29T11:52:23.956Z,6.57
2023-01-29T11:57:50.064Z,7.50
2023-01-29T12:00:30.866Z,5.90
2023-01-29T12:03:34.924Z,7.30
2023-01-29T12:06:09.176Z,6.38
2023-01-29T12:08:40.029Z,6.50
2023-01-29T12:11:10.223Z,6.68
2023-01-29T12:13:37.566Z,6.68
2023-01-29T12:16:23.683Z,6.25
2023-01-29T12:19:01.193Z,6.85
2023-01-29T12:21:45.700Z,8.65
2023-01-29T12:27:19.479Z,7.45
2023-01-29T12:29:55.711Z,6.78
2023-01-29T12:32:44.961Z,8.20
2023-01-29T12:35:24.984Z,7.90
2023-01-29T12:38:09.989Z,10.40
2023-01-29T12:40:54.943Z,10.23
2023-01-29T12:43:48.094Z,8.63
2023-01-29T12:46:50.450Z,9.10
2023-01-29T12:49:23.561Z,13.38
2023-01-29T12:52:02.791Z,13.80
2023-01-29T12:54:55.033Z,13.43
2023-01-29T12:57:43.950Z,12.98
2023-01-29T13:00:19.063Z,12.38
2023-01-29T13:03:14.762Z,11.68
2023-01-29T13:05:55.353Z,14.13
2023-01-29T13:08:29.306Z,13.40
2023-01-29T13:11:00.688Z,14.60
2023-01-29T13:13:49.620Z,13.00
2023-01-29T13:16:20.673Z,12.15
2023-01-29T13:19:06.500Z,13.10
2023-01-29T13:21:44.607Z,13.07
2023-01-29T13:24:17.634Z,11.35
2023-01-29T13:26:49.106Z,13.32
2023-01-29T13:29:28.222Z,12.98
2023-01-29T13:31:59.095Z,14.63
2023-01-29T13:34:32.617Z,14.63
2023-01-29T13:39:46.569Z,16.10
2023-01-29T13:42:21.162Z,18.30
2023-01-29T13:45:02.181Z,15.65
2023-01-29T13:47:35.889Z,16.30
2023-01-29T13:50:07.818Z,15.07
2023-01-29T13:52:53.214Z,17.77
2023-01-29T13:55:27.872Z,17.30
2023-01-29T13:57:56.517Z,14.55
2023-01-29T14:00:23.501Z,16.27
2023-01-29T14:02:59.847Z,15.85
2023-01-29T14:05:30.295Z,16.30
2023-01-29T14:08:14.006Z,15.75
2023-01-29T14:10:43.277Z,16.70
2023-01-29T14:13:16.916Z,18.52
2023-01-29T14:16:09.738Z,17.38
2023-01-29T14:18:56.367Z,17.42
2023-01-29T14:21:26.443Z,16.52
2023-01-29T14:23:59.416Z,16.88
2023-01-29T14:26:44.409Z,17.48
2023-01-29T14:29:33.904Z,19.73
2023-01-29T14:32:07.781Z,17.90
2023-01-29T14:34:42.525Z,16.83
2023-01-29T14:37:15.251Z,12.88
2023-01-29T14:39:43.962Z,12.30
2023-01-29T14:42:35.642Z,12.85
2023-01-29T14:45:27.271Z,12.32
2023-01-29T14:48:11.711Z,11.75
2023-01-29T14:50:43.422Z,12.23
2023-01-29T14:53:16.953Z,13.75
2023-01-29T14:58:23.999Z,13.35
2023-01-29T15:00:55.439Z,14.73
2023-01-29T15:03:46.402Z,13.93
2023-01-29T15:06:22.212Z,15.13
2023-01-29T15:08:56.916Z,19.60
2023-01-29T15:11:49.606Z,20.52
2023-01-29T15:14:36.882Z,21.20
2023-01-29T15:17:19.105Z,20.20
2023-01-29T15:19:48.074Z,21.13
2023-01-29T15:22:20.612Z,20.88
2023-01-29T15:25:02.152Z,22.13
2023-01-29T15:27:32.322Z,19.65
2023-01-29T15:30:02.249Z,22.05
2023-01-29T15:32:37.221Z,20.33
2023-01-29T15:35:35.273Z,19.33
2023-01-29T15:38:07.455Z,19.27
2023-01-29T15:40:36.940Z,19.55
2023-01-29T15:43:20.550Z,21.02
2023-01-29T15:45:48.568Z,22.87
2023-01-29T15:48:21.385Z,21.77
2023-01-29T15:50:53.850Z,21.10
2023-01-29T15:53:26.860Z,21.33
2023-01-29T15:55:53.972Z,21.25
2023-01-29T15:58:29.244Z,19.42
2023-01-29T16:00:57.635Z,18.88
2023-01-29T16:03:33.987Z,16.65
2023-01-29T16:06:02.254Z,17.55
2023-01-29T16:08:30.131Z,17.45
2023-01-29T16:11:04.385Z,17.40
2023-01-29T16:13:34.955Z,18.23
2023-01-29T16:16:19.453Z,17.95
2023-01-29T16:18:59.553Z,17.38
2023-01-29T16:21:37.234Z,16.65
2023-01-29T16:24:13.271Z,17.52
2023-01-29T16:26:45.704Z,17.77
2023-01-29T16:29:28.783Z,17.48
2023-01-29T16:31:57.102Z,17.65
2023-01-29T16:34:31.686Z,18.17
2023-01-29T16:37:00.733Z,17.58
2023-01-29T16:39:32.635Z,19.60
2023-01-29T16:42:11.844Z,19.25
2023-01-29T16:44:56.896Z,20.20
2023-01-29T16:47:33.104Z,20.08
2023-01-29T16:50:26.357Z,21.08
2023-01-29T16:53:03.016Z,21.40
2023-01-29T16:55:37.703Z,22.98
2023-01-29T16:58:15.531Z,20.35
2023-01-29T17:00:50.357Z,20.45
2023-01-29T17:03:20.158Z,21.40
2023-01-29T17:05:50.561Z,19.98
2023-01-29T17:08:34.939Z,20.25
2023-01-29T17:11:02.760Z,19.30
2023-01-29T17:13:42.268Z,18.17
2023-01-29T17:16:37.023Z,18.58
2023-01-29T17:19:17.259Z,19.80
2023-01-29T17:21:44.713Z,20.00
2023-01-29T17:24:14.370Z,19.05
2023-01-29T17:26:44.480Z,20.13
2023-01-29T17:29:17.534Z,21.40
2023-01-29T17:31:44.958Z,21.15
2023-01-29T17:34:17.456Z,20.15
2023-01-29T17:36:45.847Z,21.73
2023-01-29T17:39:24.205Z,26.30
2023-01-29T17:41:56.767Z,28.05
2023-01-29T17:44:26.293Z,26.67
2023-01-29T17:46:53.786Z,26.67
2023-01-29T17:49:30.901Z,27.85
2023-01-29T17:51:58.572Z,27.42
2023-01-29T17:54:27.933Z,29.88
2023-01-29T17:56:55.437Z,30.73
2023-01-29T17:59:24.967Z,30.05
2023-01-29T18:01:52.498Z,31.05
2023-01-29T18:04:20.390Z,31.73
2023-01-29T18:06:50.390Z,32.42
2023-01-29T18:09:19.986Z,28.13
2023-01-29T18:11:48.403Z,26.67
2023-01-29T18:14:15.927Z,28.25
2023-01-29T18:16:44.898Z,25.80
2023-01-29T18:19:23.671Z,25.77
2023-01-29T18:21:51.079Z,26.50
2023-01-29T18:24:18.134Z,25.80
2023-01-29T18:26:48.261Z,22.30
2023-01-29T18:29:15.388Z,22.05
2023-01-29T18:31:42.978Z,19.70
2023-01-29T18:34:12.588Z,22.52
2023-01-29T18:36:42.171Z,21.58
2023-01-29T18:39:13.044Z,22.55
2023-01-29T18:41:40.363Z,23.02
2023-01-29T18:44:07.416Z,23.80
2023-01-29T18:46:34.773Z,24.27
2023-01-29T18:49:01.872Z,22.98
2023-01-29T18:51:29.188Z,23.42
2023-01-29T18:53:56.235Z,20.60
2023-01-29T18:56:23.816Z,20.73
2023-01-29T18:58:57.009Z,20.85
2023-01-29T19:01:24.463Z,20.52
2023-01-29T19:03:51.679Z,23.33
2023-01-29T19:06:21.522Z,21.85
2023-01-29T19:08:50.994Z,22.38
2023-01-29T19:11:18.350Z,22.27
2023-01-29T19:13:45.399Z,23.30
2023-01-29T19:16:12.833Z,23.27
2023-01-29T19:18:40.067Z,23.17
2023-01-29T19:21:13.277Z,24.80
2023-01-29T19:23:41.559Z,22.60
2023-01-29T19:26:13.143Z,20.13
2023-01-29T19:28:40.363Z,20.85
2023-01-29T19:31:12.346Z,21.77
2023-01-29T19:33:41.978Z,21.67
2023-01-29T19:36:09.825Z,20.48
2023-01-29T19:38:36.888Z,19.60
2023-01-29T19:41:04.757Z,17.45
2023-01-29T19:43:34.218Z,17.05
2023-01-29T19:46:06.338Z,18.58
2023-01-29T19:48:33.446Z,17.85
2023-01-29T19:51:05.896Z,18.17
2023-01-29T19:53:35.784Z,17.98
2023-01-29T19:56:10.919Z,17.88
2023-01-29T19:58:40.679Z,22.85
2023-01-29T20:01:14.709Z,23.48
2023-01-29T20:06:09.866Z,18.00
2023-01-29T20:08:36.981Z,17.33
2023-01-29T20:11:07.012Z,15.57
2023-01-29T20:13:34.274Z,14.95
2023-01-29T20:16:02.141Z,15.50
2023-01-29T20:18:30.126Z,16.17
2023-01-29T20:20:57.573Z,16.23
2023-01-29T20:23:37.096Z,15.63
2023-01-29T20:26:13.486Z,16.77
2023-01-29T20:28:40.887Z,16.17
2023-01-29T20:31:09.453Z,14.30
2023-01-29T20:33:38.881Z,16.30
2023-01-29T20:36:09.013Z,14.55
2023-01-29T20:38:36.325Z,16.73
2023-01-29T20:41:04.756Z,15.32
2023-01-29T20:43:34.925Z,18.38
2023-01-29T20:46:04.817Z,16.45
2023-01-29T20:48:33.065Z,16.02
2023-01-29T20:51:14.679Z,16.42
2023-01-29T20:53:43.154Z,16.05
2023-01-29T20:56:13.975Z,15.57
2023-01-29T20:58:41.194Z,16.02
2023-01-29T21:01:09.634Z,16.85
2023-01-29T21:03:39.035Z,17.38
2023-01-29T21:06:07.462Z,18.05
2023-01-29T21:08:34.829Z,16.67
2023-01-29T21:11:03.069Z,16.73
2023-01-29T21:13:30.255Z,15.43
2023-01-29T21:15:57.630Z,16.73
2023-01-29T21:18:26.941Z,15.80
2023-01-29T21:20:55.448Z,15.90
2023-01-29T21:23:22.669Z,16.02
2023-01-29T21:25:50.066Z,16.05
2023-01-29T21:28:17.553Z,18.10
2023-01-29T21:30:44.900Z,16.70
2023-01-29T21:33:12.052Z,17.60
2023-01-29T21:35:39.400Z,18.25
2023-01-29T21:38:08.944Z,16.48
2023-01-29T21:40:36.365Z,17.90
2023-01-29T21:43:06.751Z,19.92
2023-01-29T21:45:35.690Z,17.42
2023-01-29T21:48:02.831Z,17.58
2023-01-29T21:50:32.857Z,16.52
2023-01-29T21:52:59.923Z,16.20
2023-01-29T21:55:27.337Z,15.27
2023-01-29T21:57:56.634Z,16.25
2023-01-29T22:00:24.051Z,17.45
2023-01-29T22:02:51.236Z,17.50
2023-01-29T22:05:21.885Z,21.23
2023-01-29T22:07:49.402Z,19.75
2023-01-29T22:10:18.278Z,20.33
2023-01-29T22:12:45.760Z,21.55
2023-01-29T22:15:14.297Z,19.63
2023-01-29T22:17:41.890Z,18.27
2023-01-29T22:20:11.016Z,19.77
2023-01-29T22:22:38.167Z,17.30
2023-01-29T22:25:06.055Z,17.35
2023-01-29T22:27:36.004Z,18.00
2023-01-29T22:30:06.675Z,18.02
2023-01-29T22:32:37.335Z,15.55
2023-01-29T22:35:05.136Z,14.68
2023-01-29T22:37:32.180Z,16.60
2023-01-29T22:40:01.969Z,16.13
2023-01-29T22:42:28.984Z,15.48
2023-01-29T22:44:56.368Z,15.90
2023-01-29T22:47:25.637Z,14.05
2023-01-29T22:49:53.050Z,14.73
2023-01-29T22:52:23.112Z,15.13
2023-01-29T22:54:50.599Z,14.85
2023-01-29T22:57:20.183Z,14.40
2023-01-29T22:59:49.976Z,13.00
2023-01-29T23:02:17.020Z,14.18
2023-01-29T23:04:46.704Z,14.32
2023-01-29T23:07:13.992Z,15.00
2023-01-29T23:09:41.289Z,14.25
2023-01-29T23:12:08.436Z,15.13
2023-01-29T23:14:35.748Z,15.05
2023-01-29T23:17:02.797Z,14.60
2023-01-29T23:19:30.086Z,15.52
2023-01-29T23:22:01.646Z,14.82
2023-01-29T23:24:28.961Z,14.38
2023-01-29T23:26:56.070Z,15.27
2023-01-29T23:29:23.473Z,15.20
2023-01-29T23:31:55.022Z,15.88
2023-01-29T23:34:22.402Z,17.17
2023-01-29T23:36:51.931Z,17.27
2023-01-29T23:39:21.735Z,16.30
2023-01-29T23:41:51.299Z,16.08
2023-01-29T23:44:18.602Z,16.65
2023-01-29T23:46:45.700Z,15.90
2023-01-29T23:49:13.194Z,17.55
2023-01-29T23:51:40.205Z,16.25
2023-01-29T23:54:12.028Z,16.83
2023-01-29T23:56:39.209Z,17.23
2023-01-29T23:59:09.099Z,16.27
